createdAt,value
2018-01-05T00:01:47.201Z,94387.90
2018-01-05T00:04:14.842Z,94385.31
2018-01-05T00:06:42.467Z,94388.48
2018-01-05T00:09:10.933Z,94407.31
2018-01-05T00:11:38.521Z,94408.67
2018-01-05T00:14:06.184Z,94392.70
2018-01-05T00:16:33.766Z,94397.28
2018-01-05T00:19:01.360Z,94384.31
2018-01-05T00:21:29.015Z,94387.58
2018-01-05T00:23:56.572Z,94383.81
2018-01-05T00:26:24.137Z,94382.41
2018-01-05T00:28:51.730Z,94386.75
2018-01-05T00:31:19.382Z,94392.02
2018-01-05T00:33:47.091Z,94383.63
2018-01-05T00:36:14.689Z,94400.90
2018-01-05T00:38:42.244Z,94405.17
2018-01-05T00:41:10.462Z,94414.78
2018-01-05T00:43:38.078Z,94425.17
2018-01-05T00:46:05.691Z,94451.03
2018-01-05T00:48:33.362Z,94455.67
2018-01-05T00:51:00.969Z,94479.44
2018-01-05T00:53:29.198Z,94483.79
2018-01-05T00:55:56.770Z,94496.02
2018-01-05T00:58:24.355Z,94508.89
2018-01-05T01:00:51.941Z,94524.53
2018-01-05T01:03:19.512Z,94537.67
2018-01-05T01:05:47.123Z,94530.09
2018-01-05T01:08:14.676Z,94518.05
2018-01-05T01:10:42.228Z,94490.20
2018-01-05T01:13:10.206Z,94473.55
2018-01-05T01:15:37.788Z,94472.97
2018-01-05T01:18:05.484Z,94445.07
2018-01-05T01:20:33.067Z,94458.94
2018-01-05T01:23:00.638Z,94449.86
2018-01-05T01:25:28.193Z,94437.88
2018-01-05T01:27:55.801Z,94441.86
2018-01-05T01:30:23.341Z,94441.64
2018-01-05T01:32:50.885Z,94459.09
2018-01-05T01:35:18.455Z,94454.13
2018-01-05T01:37:46.003Z,94480.52
2018-01-05T01:40:13.710Z,94499.76
2018-01-05T01:42:41.325Z,94499.44
2018-01-05T01:45:08.896Z,94506.45
2018-01-05T01:47:36.545Z,94504.38
2018-01-05T01:50:04.103Z,94506.74
2018-01-05T01:52:31.648Z,94508.27
2018-01-05T01:54:59.191Z,94511.69
2018-01-05T01:57:27.290Z,94513.68
2018-01-05T01:59:54.838Z,94521.84
2018-01-05T02:02:22.378Z,94527.44
2018-01-05T02:04:49.957Z,94533.26
2018-01-05T02:07:17.794Z,94544.28
2018-01-05T02:09:45.338Z,94541.76
2018-01-05T02:12:12.948Z,94547.66
2018-01-05T02:14:40.502Z,94564.45
2018-01-05T02:17:08.970Z,94571.95
2018-01-05T02:19:36.563Z,94572.09
2018-01-05T02:22:04.100Z,94588.23
2018-01-05T02:24:31.641Z,94584.61
2018-01-05T02:26:59.228Z,94578.27
2018-01-05T02:29:26.779Z,94573.93
2018-01-05T02:31:54.343Z,94572.51
2018-01-05T02:34:21.885Z,94581.55
2018-01-05T02:36:49.455Z,94584.91
2018-01-05T02:39:18.752Z,94590.41
2018-01-05T02:41:46.310Z,94592.69
2018-01-05T02:44:14.752Z,94575.80
2018-01-05T02:46:42.302Z,94575.55
2018-01-05T02:49:09.850Z,94576.16
2018-01-05T02:51:37.410Z,94588.80
2018-01-05T02:54:05.463Z,94595.48
2018-01-05T02:56:33.386Z,94606.09
2018-01-05T02:59:01.336Z,94610.19
2018-01-05T03:01:29.363Z,94608.12
2018-01-05T03:03:56.923Z,94607.78
2018-01-05T03:06:24.493Z,94627.27
2018-01-05T03:08:52.053Z,94625.06
2018-01-05T03:11:19.726Z,94624.28
2018-01-05T03:13:48.580Z,94629.88
2018-01-05T03:16:16.268Z,94625.94
2018-01-05T03:18:44.976Z,94635.55
2018-01-05T03:21:12.625Z,94638.98
2018-01-05T03:23:40.343Z,94632.73
2018-01-05T03:26:07.937Z,94636.23
2018-01-05T03:28:35.505Z,94640.45
2018-01-05T03:31:03.536Z,94649.13
2018-01-05T03:33:31.886Z,94647.93
2018-01-05T03:35:59.441Z,94641.41
2018-01-05T03:38:27.053Z,94645.04
2018-01-05T03:40:54.625Z,94649.52
2018-01-05T03:43:22.175Z,94637.43
2018-01-05T03:45:49.754Z,94642.69
2018-01-05T03:48:17.446Z,94663.05
2018-01-05T03:50:47.526Z,94665.75
2018-01-05T03:53:16.232Z,94677.51
2018-01-05T03:55:43.796Z,94675.63
2018-01-05T03:58:11.414Z,94693.89
2018-01-05T04:00:38.917Z,94701.05
2018-01-05T04:03:06.816Z,94706.42
2018-01-05T04:05:35.591Z,94710.87
2018-01-05T04:08:03.172Z,94714.30
2018-01-05T04:10:30.920Z,94722.06
2018-01-05T04:12:58.477Z,94715.83
2018-01-05T04:15:26.016Z,94718.06
2018-01-05T04:17:53.593Z,94723.94
2018-01-05T04:20:21.142Z,94723.54
2018-01-05T04:22:48.702Z,94737.06
2018-01-05T04:25:16.336Z,94724.61
2018-01-05T04:27:43.902Z,94727.69
2018-01-05T04:30:11.506Z,94738.56
2018-01-05T04:32:39.084Z,94745.72
2018-01-05T04:35:06.866Z,94740.16
2018-01-05T04:37:34.425Z,94737.42
2018-01-05T04:40:02.005Z,94734.25
2018-01-05T04:42:29.568Z,94737.47
2018-01-05T04:44:57.122Z,94732.38
2018-01-05T04:47:24.815Z,94739.21
2018-01-05T04:49:52.356Z,94728.29
2018-01-05T04:52:20.764Z,94722.20
2018-01-05T04:54:48.385Z,94747.50
2018-01-05T04:57:16.254Z,94765.91
2018-01-05T04:59:43.844Z,94752.35
2018-01-05T05:02:11.502Z,94750.44
2018-01-05T05:04:39.049Z,94756.08
2018-01-05T05:07:06.898Z,94771.02
2018-01-05T05:09:34.839Z,94773.02
2018-01-05T05:12:02.387Z,94787.89
2018-01-05T05:14:29.942Z,94794.06
2018-01-05T05:16:57.508Z,94797.92
2018-01-05T05:19:25.988Z,94813.34
2018-01-05T05:21:53.544Z,94811.66
2018-01-05T05:24:21.995Z,94805.78
2018-01-05T05:26:49.549Z,94813.05
2018-01-05T05:29:17.136Z,94822.92
2018-01-05T05:31:44.792Z,94823.65
2018-01-05T05:34:12.406Z,94822.06
2018-01-05T05:36:39.955Z,94833.72
2018-01-05T05:39:07.692Z,94828.34
2018-01-05T05:41:35.316Z,94829.98
2018-01-05T05:44:02.876Z,94837.24
2018-01-05T05:46:30.447Z,94833.39
2018-01-05T05:48:57.995Z,94838.27
2018-01-05T05:51:25.618Z,94836.80
2018-01-05T05:53:53.226Z,94849.30
2018-01-05T05:58:52.550Z,94869.88
2018-01-05T06:01:20.643Z,94856.42
2018-01-05T06:03:48.251Z,94851.53
2018-01-05T06:06:15.903Z,94855.87
2018-01-05T06:08:43.472Z,94857.03
2018-01-05T06:11:12.402Z,94864.03
2018-01-05T06:13:40.010Z,94870.73
2018-01-05T06:16:07.588Z,94873.86
2018-01-05T06:18:35.146Z,94874.78
2018-01-05T06:21:02.824Z,94877.04
2018-01-05T06:23:31.865Z,94882.02
2018-01-05T06:25:59.445Z,94879.64
2018-01-05T06:28:27.050Z,94882.81
2018-01-05T06:30:54.619Z,94888.69
2018-01-05T06:33:22.335Z,94892.03
2018-01-05T06:35:49.920Z,94889.41
2018-01-05T06:38:17.540Z,94892.36
2018-01-05T06:40:45.102Z,94901.51
2018-01-05T06:43:13.188Z,94906.91
2018-01-05T06:45:40.801Z,94900.25
2018-01-05T06:48:08.357Z,94906.39
2018-01-05T06:50:35.941Z,94920.25
2018-01-05T06:53:03.553Z,94915.50
2018-01-05T06:55:31.109Z,94915.63
2018-01-05T06:57:58.777Z,94917.06
2018-01-05T07:00:26.345Z,94934.63
2018-01-05T07:02:53.900Z,94937.18
2018-01-05T07:05:21.867Z,94944.22
2018-01-05T07:07:49.458Z,94945.70
2018-01-05T07:10:17.039Z,94954.39
2018-01-05T07:12:44.998Z,94956.86
2018-01-05T07:15:14.252Z,94941.02
2018-01-05T07:17:41.830Z,94940.92
2018-01-05T07:20:09.590Z,94943.31
2018-01-05T07:22:37.248Z,94959.66
2018-01-05T07:25:06.059Z,94963.20
2018-01-05T07:27:36.713Z,94954.81
2018-01-05T07:30:04.469Z,94947.80
2018-01-05T07:32:33.107Z,94945.77
2018-01-05T07:35:00.890Z,94943.61
2018-01-05T07:37:29.075Z,94943.00
2018-01-05T07:39:56.716Z,94932.08
2018-01-05T07:42:27.618Z,94937.03
2018-01-05T07:44:56.615Z,94943.03
2018-01-05T07:47:24.381Z,94946.14
2018-01-05T07:49:54.828Z,94954.87
2018-01-05T07:52:24.580Z,94945.40
2018-01-05T07:54:52.378Z,94948.44
2018-01-05T07:57:19.928Z,94954.73
2018-01-05T07:59:48.074Z,94950.73
2018-01-05T08:02:16.002Z,94936.59
2018-01-05T08:04:43.589Z,94943.51
2018-01-05T08:07:11.727Z,94935.36
2018-01-05T08:09:39.301Z,94949.39
2018-01-05T08:12:06.864Z,94948.67
2018-01-05T08:14:34.413Z,94942.44
2018-01-05T08:17:02.280Z,94943.40
2018-01-05T08:19:29.847Z,94945.77
2018-01-05T08:21:57.425Z,94947.23
2018-01-05T08:24:25.129Z,94956.42
2018-01-05T08:26:52.798Z,94953.42
2018-01-05T08:29:20.409Z,94954.74
2018-01-05T08:31:47.973Z,94949.14
2018-01-05T08:34:15.844Z,94954.70
2018-01-05T08:36:43.432Z,94955.14
2018-01-05T08:39:12.013Z,94956.75
2018-01-05T08:41:40.640Z,94962.34
2018-01-05T08:44:08.608Z,94950.47
2018-01-05T08:46:36.229Z,94953.08
2018-01-05T08:49:03.790Z,94952.73
2018-01-05T08:51:31.410Z,94961.47
2018-01-05T08:53:58.984Z,94951.33
2018-01-05T08:56:26.536Z,94944.31
2018-01-05T08:58:54.099Z,94949.77
2018-01-05T09:01:24.243Z,94946.91
2018-01-05T09:03:51.842Z,94956.45
2018-01-05T09:06:19.388Z,94964.52
2018-01-05T09:08:47.413Z,94969.16
2018-01-05T09:11:14.961Z,94972.58
2018-01-05T09:13:42.526Z,94977.10
2018-01-05T09:16:10.169Z,94983.14
2018-01-05T09:18:37.724Z,94984.08
2018-01-05T09:21:05.403Z,94986.78
2018-01-05T09:23:33.030Z,94983.59
2018-01-05T09:26:00.607Z,94985.00
2018-01-05T09:28:28.210Z,94980.87
2018-01-05T09:30:55.812Z,94992.64
2018-01-05T09:33:23.545Z,94984.92
2018-01-05T09:35:51.262Z,94979.98
2018-01-05T09:38:18.865Z,94978.02
2018-01-05T09:40:46.440Z,94980.00
2018-01-05T09:43:13.989Z,94982.61
2018-01-05T09:45:41.583Z,94987.12
2018-01-05T09:48:09.304Z,94990.27
2018-01-05T09:50:36.872Z,94983.25
2018-01-05T09:53:04.494Z,94985.14
2018-01-05T09:55:32.050Z,94985.52
2018-01-05T09:57:59.612Z,94965.30
2018-01-05T10:00:27.169Z,94962.45
2018-01-05T10:02:54.752Z,94969.89
2018-01-05T10:05:22.429Z,94962.42
2018-01-05T10:07:49.998Z,94954.57
2018-01-05T10:10:17.643Z,94949.15
2018-01-05T10:12:45.198Z,94941.24
2018-01-05T10:15:12.991Z,94942.28
2018-01-05T10:20:14.408Z,94949.45
2018-01-05T10:22:42.008Z,94946.59
2018-01-05T10:25:09.665Z,94931.42
2018-01-05T10:27:37.231Z,94933.77
2018-01-05T10:30:04.849Z,94923.78
2018-01-05T10:32:32.453Z,94932.80
2018-01-05T10:35:00.009Z,94918.34
2018-01-05T10:37:27.625Z,94917.66
2018-01-05T10:39:55.192Z,94916.94
2018-01-05T10:42:22.783Z,94926.30
2018-01-05T10:44:50.381Z,94926.95
2018-01-05T10:47:17.934Z,94916.35
2018-01-05T10:49:45.481Z,94920.66
2018-01-05T10:52:13.045Z,94914.45
2018-01-05T10:54:40.596Z,94902.88
2018-01-05T10:57:08.494Z,94902.19
2018-01-05T10:59:36.174Z,94902.86
2018-01-05T11:02:03.774Z,94903.94
2018-01-05T11:04:31.367Z,94913.34
2018-01-05T11:07:00.569Z,94916.92
2018-01-05T11:09:28.626Z,94922.38
2018-01-05T11:11:56.191Z,94915.15
2018-01-05T11:14:23.755Z,94912.83
2018-01-05T11:16:51.342Z,94913.44
2018-01-05T11:19:18.894Z,94910.64
2018-01-05T11:21:46.467Z,94909.72
2018-01-05T11:24:14.027Z,94922.79
2018-01-05T11:26:42.130Z,94924.37
2018-01-05T11:29:09.712Z,94917.92
2018-01-05T11:31:38.785Z,94912.59
2018-01-05T11:34:06.496Z,94896.47
2018-01-05T11:36:34.065Z,94903.69
2018-01-05T11:39:01.668Z,94899.95
2018-01-05T11:41:29.576Z,94907.90
2018-01-05T11:43:58.735Z,94899.17
2018-01-05T11:46:26.530Z,94901.27
2018-01-05T11:48:54.118Z,94896.13
2018-01-05T11:51:21.843Z,94900.81
2018-01-05T11:53:49.448Z,94904.73
2018-01-05T11:56:18.247Z,94910.27
2018-01-05T11:58:45.928Z,94906.62
2018-01-05T12:01:13.656Z,94914.92
2018-01-05T12:03:41.214Z,94917.80
2018-01-05T12:06:08.972Z,94909.70
2018-01-05T12:08:36.549Z,94908.97
2018-01-05T12:11:04.156Z,94914.72
2018-01-05T12:13:31.733Z,94910.22
2018-01-05T12:15:59.312Z,94905.22
2018-01-05T12:18:26.861Z,94901.42
2018-01-05T12:20:54.438Z,94892.87
2018-01-05T12:23:22.061Z,94890.50
2018-01-05T12:25:49.603Z,94888.89
2018-01-05T12:28:17.149Z,94890.27
2018-01-05T12:30:44.757Z,94892.25
2018-01-05T12:33:12.442Z,94890.44
2018-01-05T12:35:40.046Z,94889.23
2018-01-05T12:38:07.661Z,94899.22
2018-01-05T12:40:35.229Z,94903.51
2018-01-05T12:43:03.202Z,94899.44
2018-01-05T12:45:30.942Z,94895.98
2018-01-05T12:47:58.505Z,94894.36
2018-01-05T12:50:26.289Z,94894.36
2018-01-05T12:52:53.874Z,94891.08
2018-01-05T12:55:21.440Z,94888.73
2018-01-05T12:57:49.092Z,94902.30
2018-01-05T13:00:16.658Z,94898.22
2018-01-05T13:02:44.265Z,94900.50
2018-01-05T13:05:12.132Z,94892.03
2018-01-05T13:07:39.711Z,94891.09
2018-01-05T13:10:07.278Z,94884.52
2018-01-05T13:12:34.826Z,94880.59
2018-01-05T13:15:02.407Z,94877.06
2018-01-05T13:17:29.977Z,94878.14
2018-01-05T13:19:57.547Z,94867.06
2018-01-05T13:22:25.139Z,94866.36
2018-01-05T13:24:52.689Z,94868.88
2018-01-05T13:27:20.251Z,94864.64
2018-01-05T13:29:47.840Z,94876.43
2018-01-05T13:32:15.507Z,94880.16
2018-01-05T13:34:43.085Z,94876.88
2018-01-05T13:37:11.268Z,94878.78
2018-01-05T13:39:38.855Z,94879.01
2018-01-05T13:42:06.421Z,94884.47
2018-01-05T13:44:34.009Z,94880.78
2018-01-05T13:47:01.586Z,94883.25
2018-01-05T13:49:29.369Z,94880.73
2018-01-05T13:51:56.968Z,94884.30
2018-01-05T13:54:24.526Z,94894.53
2018-01-05T13:56:52.115Z,94879.83
2018-01-05T13:59:19.679Z,94892.27
2018-01-05T14:01:47.277Z,94888.31
2018-01-05T14:04:14.978Z,94879.16
2018-01-05T14:06:42.531Z,94881.39
2018-01-05T14:09:10.194Z,94882.58
2018-01-05T14:11:37.760Z,94891.23
2018-01-05T14:14:05.318Z,94890.50
2018-01-05T14:16:32.981Z,94895.99
2018-01-05T14:19:00.542Z,94890.78
2018-01-05T14:21:28.110Z,94885.85
2018-01-05T14:23:55.721Z,94880.75
2018-01-05T14:26:23.317Z,94881.91
2018-01-05T14:28:51.415Z,94887.70
2018-01-05T14:31:19.022Z,94888.51
2018-01-05T14:33:46.627Z,94900.09
2018-01-05T14:36:14.400Z,94904.89
2018-01-05T14:38:41.985Z,94912.28
2018-01-05T14:41:09.839Z,94912.67
2018-01-05T14:43:37.503Z,94917.30
2018-01-05T14:46:05.113Z,94915.40
2018-01-05T14:48:32.673Z,94914.41
2018-01-05T14:51:00.284Z,94917.58
2018-01-05T14:53:27.866Z,94921.95
2018-01-05T14:55:55.446Z,94923.55
2018-01-05T14:58:23.093Z,94918.34
2018-01-05T15:00:50.691Z,94920.02
2018-01-05T15:03:18.332Z,94923.11
2018-01-05T15:08:19.760Z,94923.37
2018-01-05T15:10:47.334Z,94932.48
2018-01-05T15:13:15.510Z,94931.31
2018-01-05T15:15:43.134Z,94933.88
2018-01-05T15:18:10.740Z,94948.20
2018-01-05T15:20:38.292Z,94943.77
2018-01-05T15:23:05.856Z,94949.56
2018-01-05T15:25:33.624Z,94960.73
2018-01-05T15:28:01.188Z,94950.47
2018-01-05T15:30:29.114Z,94954.55
2018-01-05T15:32:56.712Z,94960.80
2018-01-05T15:35:24.276Z,94958.24
2018-01-05T15:37:51.876Z,94962.58
2018-01-05T15:40:19.690Z,94956.02
2018-01-05T15:42:47.264Z,94963.48
2018-01-05T15:45:14.823Z,94969.63
2018-01-05T15:47:43.017Z,94974.56
2018-01-05T15:50:10.668Z,94974.16
2018-01-05T15:52:38.285Z,94975.02
2018-01-05T15:55:05.858Z,94968.82
2018-01-05T15:57:33.444Z,94968.86
2018-01-05T16:00:01.115Z,94976.02
2018-01-05T16:02:28.758Z,94970.30
2018-01-05T16:04:56.323Z,94960.90
2018-01-05T16:07:23.924Z,94963.63
2018-01-05T16:09:51.556Z,94954.92
2018-01-05T16:12:19.182Z,94947.15
2018-01-05T16:14:46.870Z,94927.63
2018-01-05T16:17:14.450Z,94909.28
2018-01-05T16:19:42.105Z,94897.75
2018-01-05T16:22:09.750Z,94894.33
2018-01-05T16:24:37.367Z,94892.80
2018-01-05T16:27:05.749Z,94901.39
2018-01-05T16:29:33.418Z,94924.91
2018-01-05T16:32:01.040Z,94936.61
2018-01-05T16:34:28.617Z,94940.09
2018-01-05T16:36:56.420Z,94955.98
2018-01-05T16:39:24.411Z,94955.70
2018-01-05T16:41:52.099Z,94955.91
2018-01-05T16:44:19.717Z,94949.13
2018-01-05T16:46:47.386Z,94952.66
2018-01-05T16:49:15.020Z,94953.91
2018-01-05T16:51:42.627Z,94951.12
2018-01-05T16:54:10.367Z,94963.64
2018-01-05T16:56:38.403Z,94970.81
2018-01-05T16:59:06.087Z,94973.95
2018-01-05T17:01:33.705Z,94968.38
2018-01-05T17:04:01.268Z,94974.10
2018-01-05T17:06:28.942Z,94973.23
2018-01-05T17:08:56.678Z,94973.64
2018-01-05T17:11:24.708Z,94968.13
2018-01-05T17:13:52.401Z,94970.59
2018-01-05T17:16:20.260Z,94966.88
2018-01-05T17:18:48.120Z,94967.19
2018-01-05T17:21:15.683Z,94958.86
2018-01-05T17:23:43.275Z,94951.91
2018-01-05T17:26:10.892Z,94952.39
2018-01-05T17:28:38.533Z,94958.71
2018-01-05T17:31:06.672Z,94949.53
2018-01-05T17:33:34.319Z,94953.25
2018-01-05T17:36:02.034Z,94959.34
2018-01-05T17:38:29.622Z,94954.06
2018-01-05T17:40:57.248Z,94956.54
2018-01-05T17:43:24.854Z,94956.52
2018-01-05T17:45:52.486Z,94960.70
2018-01-05T17:48:20.202Z,94951.94
2018-01-05T17:50:47.784Z,94958.38
2018-01-05T17:53:16.878Z,94960.27
2018-01-05T17:55:44.632Z,94958.46
2018-01-05T17:58:12.201Z,94959.73
2018-01-05T18:00:39.798Z,94951.73
2018-01-05T18:03:07.459Z,94949.48
2018-01-05T18:05:35.691Z,94950.67
2018-01-05T18:08:03.267Z,94949.13
2018-01-05T18:10:30.869Z,94944.50
2018-01-05T18:12:58.465Z,94945.55
2018-01-05T18:15:26.089Z,94942.39
2018-01-05T18:17:53.718Z,94944.74
2018-01-05T18:20:21.362Z,94949.41
2018-01-05T18:22:48.930Z,94950.39
2018-01-05T18:25:16.534Z,94949.77
2018-01-05T18:27:44.145Z,94956.91
2018-01-05T18:30:11.873Z,94963.22
2018-01-05T18:32:39.468Z,94972.33
2018-01-05T18:35:07.089Z,94969.53
2018-01-05T18:37:34.683Z,94965.77
2018-01-05T18:40:02.345Z,94972.69
2018-01-05T18:42:29.934Z,94981.01
2018-01-05T18:44:57.517Z,94988.06
2018-01-05T18:47:25.172Z,94990.81
2018-01-05T18:49:52.781Z,94981.05
2018-01-05T18:52:20.349Z,94983.76
2018-01-05T18:54:47.967Z,94982.03
2018-01-05T18:57:15.600Z,94987.50
2018-01-05T18:59:43.172Z,94982.77
2018-01-05T19:02:10.780Z,94976.58
2018-01-05T19:04:39.003Z,94985.40
2018-01-05T19:07:09.848Z,94981.55
2018-01-05T19:09:37.598Z,94978.87
2018-01-05T19:12:05.167Z,94990.06
2018-01-05T19:14:32.754Z,95000.69
2018-01-05T19:17:02.196Z,94990.06
2018-01-05T19:19:29.801Z,94992.65
2018-01-05T19:21:57.388Z,94991.50
2018-01-05T19:24:24.985Z,94994.58
2018-01-05T19:26:52.593Z,94998.06
2018-01-05T19:29:20.220Z,95008.52
2018-01-05T19:31:47.782Z,95000.78
2018-01-05T19:34:15.406Z,94994.55
2018-01-05T19:36:42.994Z,94992.48
2018-01-05T19:39:10.951Z,94991.59
2018-01-05T19:41:38.657Z,94995.13
2018-01-05T19:44:06.248Z,94976.79
2018-01-05T19:46:33.811Z,94993.77
2018-01-05T19:49:01.443Z,94997.81
2018-01-05T19:51:29.018Z,95007.45
2018-01-05T19:53:56.696Z,95011.59
2018-01-05T19:56:24.936Z,95023.28
2018-01-05T19:58:53.498Z,95021.98
2018-01-05T20:01:21.501Z,95026.53
2018-01-05T20:03:49.304Z,95034.11
2018-01-05T20:06:17.389Z,95035.22
2018-01-05T20:08:45.289Z,95029.16
2018-01-05T20:11:13.277Z,95030.78
2018-01-05T20:13:41.221Z,95022.88
2018-01-05T20:16:09.157Z,95023.04
2018-01-05T20:18:37.038Z,95016.27
2018-01-05T20:21:05.016Z,95026.44
2018-01-05T20:23:32.996Z,95029.00
2018-01-05T20:26:01.010Z,95036.16
2018-01-05T20:28:28.901Z,95034.20
2018-01-05T20:30:56.780Z,95040.89
2018-01-05T20:33:24.881Z,95039.64
2018-01-05T20:35:52.869Z,95033.06
2018-01-05T20:38:21.062Z,95030.80
2018-01-05T20:40:49.120Z,95026.77
2018-01-05T20:43:17.359Z,95031.50
2018-01-05T20:45:46.869Z,95036.27
2018-01-05T20:48:15.585Z,95035.20
2018-01-05T20:50:43.504Z,95042.11
2018-01-05T20:53:12.161Z,95041.09
2018-01-05T20:55:40.733Z,95046.30
2018-01-05T20:58:08.881Z,95047.52
2018-01-05T21:00:36.788Z,95042.53
2018-01-05T21:03:15.393Z,95047.08
2018-01-05T21:05:43.397Z,95039.09
2018-01-05T21:08:11.475Z,95046.63
2018-01-05T21:10:39.404Z,95056.00
2018-01-05T21:13:08.030Z,95049.21
2018-01-05T21:15:36.098Z,95051.58
2018-01-05T21:18:04.154Z,95056.68
2018-01-05T21:20:31.758Z,95060.17
2018-01-05T21:22:59.431Z,95054.37
2018-01-05T21:25:27.102Z,95059.08
2018-01-05T21:27:54.730Z,95064.52
2018-01-05T21:30:22.302Z,95064.61
2018-01-05T21:32:49.937Z,95059.25
2018-01-05T21:35:17.518Z,95063.29
2018-01-05T21:37:45.145Z,95065.03
2018-01-05T21:40:12.726Z,95050.83
2018-01-05T21:42:40.268Z,95049.33
2018-01-05T21:45:08.021Z,95059.95
2018-01-05T21:47:35.604Z,95056.89
2018-01-05T21:50:03.173Z,95059.88
2018-01-05T21:52:30.820Z,95053.02
2018-01-05T21:54:58.424Z,95056.21
2018-01-05T21:57:25.987Z,95048.39
2018-01-05T21:59:53.563Z,95059.83
2018-01-05T22:02:21.182Z,95060.73
2018-01-05T22:04:48.781Z,95058.66
2018-01-05T22:07:16.338Z,95062.98
2018-01-05T22:09:43.904Z,95066.91
2018-01-05T22:12:11.615Z,95065.64
2018-01-05T22:14:39.249Z,95073.05
2018-01-05T22:17:06.904Z,95072.56
2018-01-05T22:19:34.500Z,95076.50
2018-01-05T22:22:02.066Z,95068.18
2018-01-05T22:24:29.638Z,95067.44
2018-01-05T22:26:57.251Z,95071.80
2018-01-05T22:29:25.038Z,95075.81
2018-01-05T22:31:52.622Z,95074.08
2018-01-05T22:34:20.294Z,95072.27
2018-01-05T22:36:47.861Z,95067.13
2018-01-05T22:39:15.437Z,95068.50
2018-01-05T22:41:43.058Z,95062.62
2018-01-05T22:44:10.774Z,95067.27
2018-01-05T22:46:38.351Z,95071.88
2018-01-05T22:49:06.161Z,95066.81
2018-01-05T22:51:33.813Z,95074.91
2018-01-05T22:54:01.369Z,95067.34
2018-01-05T22:56:28.988Z,95074.84
2018-01-05T22:58:56.599Z,95075.69
2018-01-05T23:01:24.244Z,95072.30
2018-01-05T23:03:51.916Z,95075.99
2018-01-05T23:06:19.525Z,95076.41
2018-01-05T23:08:47.079Z,95077.92
2018-01-05T23:11:16.117Z,95085.05
2018-01-05T23:13:43.729Z,95076.69
2018-01-05T23:16:11.329Z,95079.52
2018-01-05T23:18:39.031Z,95084.06
2018-01-05T23:21:06.828Z,95079.16
2018-01-05T23:23:34.409Z,95075.30
2018-01-05T23:26:01.992Z,95076.75
2018-01-05T23:28:30.259Z,95080.62
2018-01-05T23:30:57.818Z,95077.36
2018-01-05T23:33:25.532Z,95075.92
2018-01-05T23:35:53.133Z,95084.05
2018-01-05T23:38:20.975Z,95082.78
2018-01-05T23:40:48.649Z,95068.23
2018-01-05T23:43:18.614Z,95080.55
2018-01-05T23:45:46.211Z,95075.08
2018-01-05T23:48:14.361Z,95080.19
2018-01-05T23:50:41.962Z,95080.14
2018-01-05T23:53:12.223Z,95076.03
2018-01-05T23:55:39.910Z,95063.91
2018-01-05T23:58:07.577Z,95070.52
